createdAt,value
2022-11-07T00:00:08.133Z,6.50
2022-11-07T00:02:39.505Z,6.50
2022-11-07T00:05:09.018Z,6.40
2022-11-07T00:07:37.261Z,6.30
2022-11-07T00:10:07.103Z,6.30
2022-11-07T00:12:37.056Z,6.20
2022-11-07T00:15:07.144Z,6.20
2022-11-07T00:17:35.355Z,6.20
2022-11-07T00:20:03.594Z,6.20
2022-11-07T00:22:31.779Z,6.20
2022-11-07T00:25:00.360Z,6.20
2022-11-07T00:27:28.566Z,6.20
2022-11-07T00:29:58.261Z,6.20
2022-11-07T00:32:26.559Z,6.20
2022-11-07T00:34:54.832Z,6.20
2022-11-07T00:37:22.990Z,6.30
2022-11-07T00:39:51.299Z,6.30
2022-11-07T00:42:19.536Z,6.40
2022-11-07T00:44:47.794Z,6.40
2022-11-07T00:47:17.356Z,6.40
2022-11-07T00:49:45.644Z,6.50
2022-11-07T00:52:13.833Z,6.60
2022-11-07T00:54:42.278Z,6.60
2022-11-07T00:57:10.481Z,6.70
2022-11-07T00:59:38.744Z,6.70
2022-11-07T01:02:07.063Z,6.80
2022-11-07T01:04:54.575Z,6.80
2022-11-07T01:07:22.808Z,6.90
2022-11-07T01:09:50.968Z,7.00
2022-11-07T01:12:19.244Z,7.00
2022-11-07T01:14:47.421Z,7.10
2022-11-07T01:17:15.633Z,7.20
2022-11-07T01:19:45.275Z,7.20
2022-11-07T01:22:13.552Z,7.20
2022-11-07T01:24:41.790Z,7.30
2022-11-07T01:27:12.490Z,7.30
2022-11-07T01:29:43.283Z,7.30
2022-11-07T01:32:11.465Z,7.40
2022-11-07T01:34:39.676Z,7.40
2022-11-07T01:37:09.314Z,7.40
2022-11-07T01:39:37.731Z,7.40
2022-11-07T01:42:06.123Z,7.40
2022-11-07T01:45:00.857Z,7.50
2022-11-07T01:47:32.809Z,7.50
2022-11-07T01:50:02.176Z,7.60
2022-11-07T01:52:35.964Z,7.70
2022-11-07T01:55:09.198Z,7.80
2022-11-07T01:57:42.118Z,7.80
2022-11-07T02:00:15.071Z,7.90
2022-11-07T02:02:44.346Z,8.00
2022-11-07T02:05:18.841Z,8.00
2022-11-07T02:07:48.725Z,8.10
2022-11-07T02:10:17.577Z,8.10
2022-11-07T02:12:45.852Z,8.20
2022-11-07T02:15:14.232Z,8.20
2022-11-07T02:17:42.468Z,8.20
2022-11-07T02:20:12.204Z,8.20
2022-11-07T02:22:46.546Z,8.30
2022-11-07T02:25:19.682Z,8.30
2022-11-07T02:27:50.674Z,8.30
2022-11-07T02:30:21.074Z,8.40
2022-11-07T02:32:49.342Z,8.40
2022-11-07T02:35:38.464Z,8.40
2022-11-07T02:38:11.857Z,8.40
2022-11-07T02:40:41.648Z,8.40
2022-11-07T02:43:12.509Z,8.40
2022-11-07T02:45:45.405Z,8.40
2022-11-07T02:48:13.672Z,8.40
2022-11-07T02:50:42.502Z,8.50
2022-11-07T02:53:10.936Z,8.50
2022-11-07T02:55:39.201Z,8.50
2022-11-07T02:58:08.792Z,8.50
2022-11-07T03:00:36.953Z,8.50
2022-11-07T03:03:05.424Z,8.60
2022-11-07T03:05:33.585Z,8.50
2022-11-07T03:08:01.781Z,8.50
2022-11-07T03:10:29.988Z,8.50
2022-11-07T03:12:58.243Z,8.50
2022-11-07T03:15:27.798Z,8.50
2022-11-07T03:17:56.033Z,8.50
2022-11-07T03:20:24.174Z,8.50
2022-11-07T03:22:52.384Z,8.50
2022-11-07T03:25:20.522Z,8.50
2022-11-07T03:27:51.559Z,8.60
2022-11-07T03:30:20.129Z,8.60
2022-11-07T03:32:52.221Z,8.60
2022-11-07T03:35:20.487Z,8.60
2022-11-07T03:37:49.661Z,8.60
2022-11-07T03:40:18.481Z,8.60
2022-11-07T03:42:47.182Z,8.70
2022-11-07T03:45:17.291Z,8.70
2022-11-07T03:47:47.140Z,8.70
2022-11-07T03:50:18.415Z,8.70
2022-11-07T03:52:47.184Z,8.70
2022-11-07T03:55:18.361Z,8.80
2022-11-07T03:57:47.948Z,8.80
2022-11-07T04:00:17.740Z,8.80
2022-11-07T04:02:46.332Z,8.80
2022-11-07T04:05:15.950Z,8.80
2022-11-07T04:07:44.170Z,8.80
2022-11-07T04:10:12.600Z,8.80
2022-11-07T04:12:58.134Z,8.80
2022-11-07T04:15:44.184Z,8.80
2022-11-07T04:18:12.492Z,8.80
2022-11-07T04:20:42.012Z,8.80
2022-11-07T04:23:10.316Z,8.80
2022-11-07T04:25:55.940Z,8.80
2022-11-07T04:28:24.217Z,8.90
2022-11-07T04:30:52.417Z,8.90
2022-11-07T04:33:20.615Z,8.90
2022-11-07T04:35:50.292Z,8.80
2022-11-07T04:38:18.444Z,8.80
2022-11-07T04:40:46.695Z,8.80
2022-11-07T04:43:15.080Z,8.90
2022-11-07T04:45:43.553Z,8.80
2022-11-07T04:48:14.232Z,8.80
2022-11-07T04:50:43.352Z,8.80
2022-11-07T04:53:14.903Z,8.80
2022-11-07T04:55:44.445Z,8.80
2022-11-07T04:58:13.459Z,8.90
2022-11-07T05:00:41.739Z,8.90
2022-11-07T05:03:10.361Z,9.00
2022-11-07T05:05:39.803Z,9.00
2022-11-07T05:08:08.064Z,9.10
2022-11-07T05:10:37.692Z,9.00
2022-11-07T05:13:05.984Z,9.10
2022-11-07T05:15:34.194Z,9.10
2022-11-07T05:18:02.357Z,9.10
2022-11-07T05:20:32.383Z,9.10
2022-11-07T05:23:17.886Z,9.10
2022-11-07T05:25:49.481Z,9.10
2022-11-07T05:28:29.928Z,9.10
2022-11-07T05:31:03.832Z,9.10
2022-11-07T05:33:32.294Z,9.20
2022-11-07T05:36:10.329Z,9.20
2022-11-07T05:38:38.636Z,9.20
2022-11-07T05:41:08.268Z,9.20
2022-11-07T05:43:37.722Z,9.30
2022-11-07T05:46:06.542Z,9.30
2022-11-07T05:48:35.402Z,9.30
2022-11-07T05:51:04.193Z,9.30
2022-11-07T05:53:32.751Z,9.40
2022-11-07T05:56:01.070Z,9.40
2022-11-07T05:58:30.747Z,9.40
2022-11-07T06:01:02.973Z,9.50
2022-11-07T06:03:31.640Z,9.50
2022-11-07T06:06:00.496Z,9.50
2022-11-07T06:08:28.737Z,9.50
2022-11-07T06:10:56.976Z,9.50
2022-11-07T06:13:25.223Z,9.60
2022-11-07T06:15:54.738Z,9.60
2022-11-07T06:18:23.110Z,9.70
2022-11-07T06:20:51.431Z,9.70
2022-11-07T06:23:20.336Z,9.70
2022-11-07T06:25:49.171Z,9.70
2022-11-07T06:28:17.486Z,9.80
2022-11-07T06:30:46.416Z,9.80
2022-11-07T06:33:18.843Z,9.80
2022-11-07T06:35:47.603Z,9.90
2022-11-07T06:38:16.515Z,9.90
2022-11-07T06:40:46.949Z,9.90
2022-11-07T06:43:17.925Z,9.90
2022-11-07T06:45:47.891Z,9.90
2022-11-07T06:48:17.578Z,9.90
2022-11-07T06:50:45.766Z,10.00
2022-11-07T06:53:15.135Z,10.00
2022-11-07T06:55:43.651Z,10.00
2022-11-07T06:58:11.848Z,10.00
2022-11-07T07:00:42.677Z,10.10
2022-11-07T07:03:12.296Z,10.10
2022-11-07T07:05:42.076Z,10.10
2022-11-07T07:08:12.439Z,10.10
2022-11-07T07:10:44.739Z,10.10
2022-11-07T07:13:14.034Z,10.20
2022-11-07T07:15:50.939Z,10.20
2022-11-07T07:18:22.333Z,10.30
2022-11-07T07:20:53.923Z,10.30
2022-11-07T07:23:24.272Z,10.40
2022-11-07T07:25:52.989Z,10.40
2022-11-07T07:28:21.274Z,10.40
2022-11-07T07:30:52.059Z,10.50
2022-11-07T07:33:26.508Z,10.50
2022-11-07T07:36:01.946Z,10.60
2022-11-07T07:38:33.113Z,10.60
2022-11-07T07:41:05.302Z,10.60
2022-11-07T07:43:33.704Z,10.60
2022-11-07T07:46:07.652Z,10.70
2022-11-07T07:48:36.870Z,10.80
2022-11-07T07:51:09.752Z,10.80
2022-11-07T07:53:55.833Z,10.80
2022-11-07T07:56:23.986Z,10.80
2022-11-07T07:58:52.478Z,10.90
2022-11-07T08:01:26.136Z,10.90
2022-11-07T08:04:02.124Z,11.00
2022-11-07T08:06:33.614Z,11.00
2022-11-07T08:09:04.145Z,11.00
2022-11-07T08:11:32.504Z,11.00
2022-11-07T08:14:04.248Z,11.10
2022-11-07T08:16:32.525Z,11.10
2022-11-07T08:19:00.720Z,11.20
2022-11-07T08:21:28.872Z,11.20
2022-11-07T08:23:58.599Z,11.30
2022-11-07T08:26:27.336Z,11.30
2022-11-07T08:28:55.626Z,11.40
2022-11-07T08:31:24.042Z,11.40
2022-11-07T08:33:52.316Z,11.50
2022-11-07T08:36:20.690Z,11.50
2022-11-07T08:38:50.986Z,11.50
2022-11-07T08:41:22.316Z,11.60
2022-11-07T08:43:51.115Z,11.60
2022-11-07T08:46:20.444Z,11.70
2022-11-07T08:48:48.650Z,11.70
2022-11-07T08:51:25.810Z,11.80
2022-11-07T08:54:00.476Z,12.10
2022-11-07T08:56:33.207Z,12.40
2022-11-07T08:59:07.250Z,12.60
2022-11-07T09:01:55.946Z,12.70
2022-11-07T09:04:27.310Z,13.00
2022-11-07T09:06:57.310Z,13.10
2022-11-07T09:09:25.730Z,13.40
2022-11-07T09:11:55.689Z,13.60
2022-11-07T09:14:24.194Z,13.80
2022-11-07T09:16:52.431Z,14.00
2022-11-07T09:19:20.777Z,14.20
2022-11-07T09:21:49.229Z,14.40
2022-11-07T09:24:17.393Z,14.60
2022-11-07T09:26:45.727Z,14.80
2022-11-07T09:29:15.299Z,15.00
2022-11-07T09:31:43.464Z,15.20
2022-11-07T09:34:11.686Z,15.40
2022-11-07T09:36:45.361Z,15.50
2022-11-07T09:39:16.914Z,15.50
2022-11-07T09:41:57.091Z,15.40
2022-11-07T09:44:56.724Z,15.40
2022-11-07T09:47:35.972Z,15.20
2022-11-07T09:50:12.620Z,15.10
2022-11-07T09:52:49.050Z,15.00
2022-11-07T09:55:21.499Z,14.90
2022-11-07T09:57:51.403Z,14.80
2022-11-07T10:00:22.692Z,14.80
2022-11-07T10:02:54.673Z,14.70
2022-11-07T10:05:35.216Z,14.70
2022-11-07T10:08:09.744Z,14.60
2022-11-07T10:10:44.834Z,14.60
2022-11-07T10:13:30.236Z,14.50
2022-11-07T10:16:10.224Z,14.50
2022-11-07T10:18:54.647Z,14.40
2022-11-07T10:21:37.632Z,14.50
2022-11-07T10:24:32.204Z,14.50
2022-11-07T10:27:00.853Z,14.50
2022-11-07T10:29:44.093Z,14.50
2022-11-07T10:32:21.360Z,14.50
2022-11-07T10:34:54.916Z,14.50
2022-11-07T10:37:26.341Z,14.60
2022-11-07T10:39:54.600Z,14.60
2022-11-07T10:42:26.784Z,14.50
2022-11-07T10:44:57.542Z,14.50
2022-11-07T10:47:29.552Z,14.50
2022-11-07T10:49:59.690Z,14.40
2022-11-07T10:52:29.486Z,14.40
2022-11-07T10:55:09.137Z,14.30
2022-11-07T10:57:37.711Z,14.30
2022-11-07T11:00:21.338Z,14.30
2022-11-07T11:02:51.752Z,14.20
2022-11-07T11:05:26.706Z,14.30
2022-11-07T11:07:57.172Z,14.30
2022-11-07T11:10:27.652Z,14.30
2022-11-07T11:12:56.324Z,14.30
2022-11-07T11:15:29.929Z,14.40
2022-11-07T11:18:07.321Z,14.30
2022-11-07T11:20:39.097Z,14.40
2022-11-07T11:23:09.081Z,14.30
2022-11-07T11:25:49.129Z,14.30
2022-11-07T11:28:25.113Z,14.30
2022-11-07T11:30:59.119Z,14.30
2022-11-07T11:33:36.228Z,14.30
2022-11-07T11:36:12.133Z,14.30
2022-11-07T11:38:40.819Z,14.30
2022-11-07T11:41:17.499Z,14.30
2022-11-07T11:43:52.686Z,14.30
2022-11-07T11:46:28.790Z,14.40
2022-11-07T11:49:01.868Z,14.40
2022-11-07T11:51:38.693Z,14.30
2022-11-07T11:54:10.906Z,14.30
2022-11-07T11:56:52.102Z,14.30
2022-11-07T11:59:41.325Z,14.40
2022-11-07T12:02:38.284Z,14.40
2022-11-07T12:05:20.539Z,14.40
2022-11-07T12:07:59.806Z,14.30
2022-11-07T12:10:33.381Z,14.30
2022-11-07T12:13:12.815Z,14.20
2022-11-07T12:15:50.588Z,14.20
2022-11-07T12:18:26.865Z,14.10
2022-11-07T12:21:07.605Z,14.10
2022-11-07T12:23:53.085Z,14.10
2022-11-07T12:26:25.950Z,14.00
2022-11-07T12:29:00.582Z,14.00
2022-11-07T12:31:43.610Z,14.00
2022-11-07T12:34:32.356Z,13.90
2022-11-07T12:37:20.035Z,14.00
2022-11-07T12:39:58.176Z,14.00
2022-11-07T12:42:39.170Z,14.00
2022-11-07T12:45:17.777Z,14.00
2022-11-07T12:48:10.186Z,14.00
2022-11-07T12:50:52.922Z,13.90
2022-11-07T12:53:35.600Z,13.90
2022-11-07T12:56:07.201Z,13.90
2022-11-07T12:58:38.640Z,14.00
2022-11-07T13:01:08.286Z,14.10
2022-11-07T13:03:54.117Z,14.20
2022-11-07T13:06:27.640Z,14.30
2022-11-07T13:09:04.180Z,14.40
2022-11-07T13:11:39.294Z,14.40
2022-11-07T13:14:25.648Z,14.40
2022-11-07T13:17:05.674Z,14.40
2022-11-07T13:19:36.000Z,14.50
2022-11-07T13:22:06.213Z,14.50
2022-11-07T13:24:51.377Z,14.40
2022-11-07T13:27:23.650Z,14.40
2022-11-07T13:29:54.271Z,14.40
2022-11-07T13:32:22.718Z,14.30
2022-11-07T13:34:57.810Z,14.20
2022-11-07T13:37:29.908Z,14.00
2022-11-07T13:40:03.437Z,13.90
2022-11-07T13:42:34.049Z,13.90
2022-11-07T13:45:18.118Z,13.80
2022-11-07T13:47:46.838Z,13.80
2022-11-07T13:50:22.350Z,13.90
2022-11-07T13:53:00.182Z,13.70
2022-11-07T13:55:42.095Z,13.80
2022-11-07T13:58:14.384Z,13.70
2022-11-07T14:00:42.723Z,13.60
2022-11-07T14:03:24.472Z,13.60
2022-11-07T14:05:53.851Z,13.60
2022-11-07T14:08:26.049Z,13.60
2022-11-07T14:10:56.484Z,13.50
2022-11-07T14:13:28.742Z,13.50
2022-11-07T14:15:59.732Z,13.50
2022-11-07T14:18:33.410Z,13.50
2022-11-07T14:21:02.478Z,13.40
2022-11-07T14:23:33.465Z,13.40
2022-11-07T14:26:05.652Z,13.30
2022-11-07T14:55:48.656Z,12.90
2022-11-07T15:11:02.993Z,12.70
2022-11-07T15:13:34.385Z,12.60
2022-11-07T15:16:19.079Z,12.60
2022-11-07T15:23:14.689Z,12.60
2022-11-07T15:26:10.888Z,12.50
2022-11-07T15:28:49.611Z,12.40
2022-11-07T15:31:43.733Z,12.40
2022-11-07T15:43:36.152Z,12.40
2022-11-07T15:44:56.672Z,12.30
2022-11-07T15:47:25.385Z,12.30
2022-11-07T15:49:55.565Z,12.30
2022-11-07T15:52:30.479Z,12.30
2022-11-07T15:55:01.550Z,12.30
2022-11-07T15:57:34.943Z,12.30
2022-11-07T16:01:11.776Z,12.30
2022-11-07T16:03:28.740Z,12.30
2022-11-07T16:10:06.259Z,12.30
2022-11-07T16:12:45.909Z,12.20
2022-11-07T16:15:22.196Z,12.20
2022-11-07T16:18:14.966Z,12.30
2022-11-07T16:20:56.006Z,12.30
2022-11-07T16:23:25.200Z,12.20
2022-11-07T16:25:57.058Z,12.20
2022-11-07T16:28:42.986Z,12.20
2022-11-07T16:31:16.952Z,12.20
2022-11-07T16:34:42.367Z,12.10
2022-11-07T16:37:48.742Z,12.10
2022-11-07T16:40:37.287Z,12.20
2022-11-07T16:43:35.320Z,12.20
2022-11-07T16:46:13.235Z,12.20
2022-11-07T16:52:44.440Z,12.20
2022-11-07T16:55:19.559Z,12.20
2022-11-07T16:57:52.136Z,12.20
2022-11-07T17:00:40.204Z,12.20
2022-11-07T17:03:14.868Z,12.10
2022-11-07T17:06:00.771Z,12.10
2022-11-07T17:08:40.022Z,12.20
2022-11-07T17:11:15.083Z,12.20
2022-11-07T17:13:44.678Z,12.10
2022-11-07T17:16:22.221Z,12.10
2022-11-07T17:18:53.666Z,12.10
2022-11-07T17:21:29.265Z,12.10
2022-11-07T17:23:59.372Z,12.10
2022-11-07T17:26:29.822Z,12.10
2022-11-07T17:28:59.214Z,12.10
2022-11-07T17:31:27.664Z,12.10
2022-11-07T17:33:56.100Z,12.20
2022-11-07T17:36:35.263Z,12.20
2022-11-07T17:39:11.219Z,12.20
2022-11-07T17:41:40.039Z,12.20
2022-11-07T17:44:13.024Z,12.20
2022-11-07T17:46:43.222Z,12.20
2022-11-07T17:49:16.530Z,12.20
2022-11-07T17:51:46.283Z,12.20
2022-11-07T17:54:15.735Z,12.20
2022-11-07T17:56:45.118Z,12.20
2022-11-07T17:59:15.291Z,12.20
2022-11-07T18:01:46.919Z,12.20
2022-11-07T18:04:15.938Z,12.20
2022-11-07T18:06:49.553Z,12.20
2022-11-07T18:09:20.638Z,12.20
2022-11-07T18:11:49.197Z,12.20
2022-11-07T18:14:17.363Z,12.20
2022-11-07T18:16:45.624Z,12.20
2022-11-07T18:19:17.534Z,12.20
2022-11-07T18:21:48.400Z,12.10
2022-11-07T18:24:22.268Z,12.00
2022-11-07T18:26:51.851Z,12.00
2022-11-07T18:29:20.593Z,12.10
2022-11-07T18:31:52.380Z,12.10
2022-11-07T18:34:20.816Z,12.10
2022-11-07T18:36:53.659Z,12.00
2022-11-07T18:39:23.413Z,12.00
2022-11-07T18:41:54.016Z,12.00
2022-11-07T18:44:22.306Z,11.90
2022-11-07T18:46:50.550Z,11.80
2022-11-07T18:49:19.616Z,11.80
2022-11-07T18:51:48.031Z,11.80
2022-11-07T18:54:22.126Z,11.70
2022-11-07T18:56:52.177Z,11.70
2022-11-07T18:59:20.417Z,11.70
2022-11-07T19:01:48.842Z,11.60
2022-11-07T19:04:17.239Z,11.60
2022-11-07T19:06:59.008Z,11.60
2022-11-07T19:09:32.153Z,11.60
2022-11-07T19:12:04.981Z,11.60
2022-11-07T19:14:36.431Z,11.60
2022-11-07T19:17:04.911Z,11.50
2022-11-07T19:19:35.490Z,11.50
2022-11-07T19:22:12.756Z,11.50
2022-11-07T19:24:42.630Z,11.40
2022-11-07T19:27:10.770Z,11.40
2022-11-07T19:29:39.042Z,11.40
2022-11-07T19:32:07.905Z,11.40
2022-11-07T19:34:36.195Z,11.40
2022-11-07T19:37:05.089Z,11.50
2022-11-07T19:39:36.499Z,11.40
2022-11-07T19:42:10.793Z,11.50
2022-11-07T19:44:40.829Z,11.50
2022-11-07T19:47:14.131Z,11.60
2022-11-07T19:49:44.504Z,11.60
2022-11-07T19:52:12.714Z,11.60
2022-11-07T19:54:42.320Z,11.50
2022-11-07T19:57:12.034Z,11.50
2022-11-07T19:59:40.397Z,11.60
2022-11-07T20:02:31.688Z,11.60
2022-11-07T20:05:00.096Z,11.60
2022-11-07T20:07:28.390Z,11.60
2022-11-07T20:09:58.786Z,11.50
2022-11-07T20:12:28.667Z,11.50
2022-11-07T20:14:56.973Z,11.50
2022-11-07T20:17:25.152Z,11.50
2022-11-07T20:19:53.511Z,11.50
2022-11-07T20:22:21.718Z,11.50
2022-11-07T20:24:50.714Z,11.50
2022-11-07T20:27:19.067Z,11.50
2022-11-07T20:29:48.824Z,11.50
2022-11-07T20:32:17.118Z,11.50
2022-11-07T20:34:47.788Z,11.40
2022-11-07T20:37:21.026Z,11.40
2022-11-07T20:39:50.253Z,11.40
2022-11-07T20:42:19.187Z,11.30
2022-11-07T20:44:51.101Z,11.30
2022-11-07T20:47:19.654Z,11.30
2022-11-07T20:49:47.967Z,11.30
2022-11-07T20:52:16.248Z,11.30
2022-11-07T20:54:47.063Z,11.20
2022-11-07T20:57:15.397Z,11.20
2022-11-07T20:59:45.409Z,11.20
2022-11-07T21:02:15.048Z,11.10
2022-11-07T21:05:03.280Z,11.10
2022-11-07T21:07:31.633Z,11.10
2022-11-07T21:09:59.805Z,11.00
2022-11-07T21:12:27.954Z,11.00
2022-11-07T21:14:56.308Z,11.00
2022-11-07T21:17:26.061Z,11.00
2022-11-07T21:19:54.314Z,10.90
2022-11-07T21:22:28.094Z,10.90
2022-11-07T21:24:57.713Z,10.90
2022-11-07T21:27:26.069Z,10.90
2022-11-07T21:29:54.616Z,10.90
2022-11-07T21:32:22.802Z,10.80
2022-11-07T21:34:52.534Z,10.80
2022-11-07T21:37:20.732Z,10.70
2022-11-07T21:39:49.152Z,10.70
2022-11-07T21:42:18.217Z,10.70
2022-11-07T21:44:46.391Z,10.60
2022-11-07T21:47:17.230Z,10.60
2022-11-07T21:49:45.545Z,10.60
2022-11-07T21:52:15.180Z,10.50
2022-11-07T21:54:46.578Z,10.50
2022-11-07T21:57:14.805Z,10.50
2022-11-07T21:59:43.038Z,10.40
2022-11-07T22:02:12.765Z,10.40
2022-11-07T22:04:41.116Z,10.40
2022-11-07T22:07:09.358Z,10.40
2022-11-07T22:09:38.905Z,10.30
2022-11-07T22:12:10.077Z,10.30
2022-11-07T22:14:38.635Z,10.30
2022-11-07T22:17:09.315Z,10.20
2022-11-07T22:19:37.592Z,10.20
2022-11-07T22:22:05.764Z,10.20
2022-11-07T22:24:34.039Z,10.10
2022-11-07T22:27:03.661Z,10.10
2022-11-07T22:29:31.883Z,10.10
2022-11-07T22:32:00.808Z,10.00
2022-11-07T22:34:29.134Z,10.00
2022-11-07T22:36:57.516Z,10.00
2022-11-07T22:39:25.708Z,10.00
2022-11-07T22:41:54.144Z,10.00
2022-11-07T22:44:23.843Z,10.00
2022-11-07T22:46:52.089Z,10.00
2022-11-07T22:49:20.384Z,9.90
2022-11-07T22:51:48.624Z,9.90
2022-11-07T22:54:19.304Z,9.90
2022-11-07T22:56:47.557Z,9.90
2022-11-07T22:59:15.833Z,9.80
2022-11-07T23:01:45.486Z,9.80
2022-11-07T23:04:16.016Z,9.80
2022-11-07T23:06:44.340Z,9.80
2022-11-07T23:09:14.457Z,9.70
2022-11-07T23:11:47.888Z,9.70
2022-11-07T23:14:17.904Z,9.70
2022-11-07T23:16:49.182Z,9.70
2022-11-07T23:19:20.003Z,9.70
2022-11-07T23:21:49.016Z,9.70
2022-11-07T23:24:17.633Z,9.70
2022-11-07T23:26:46.172Z,9.70
2022-11-07T23:29:16.087Z,9.70
2022-11-07T23:31:46.907Z,9.70
2022-11-07T23:34:17.560Z,9.70
2022-11-07T23:36:46.394Z,9.70
2022-11-07T23:39:16.562Z,9.70
2022-11-07T23:41:45.758Z,9.70
2022-11-07T23:44:15.092Z,9.70
2022-11-07T23:47:13.046Z,9.70
2022-11-07T23:50:00.121Z,9.80
2022-11-07T23:52:28.409Z,9.90
2022-11-07T23:55:28.382Z,9.90
2022-11-07T23:58:14.425Z,9.90
